Thunder radar more information blitzortung!


Radar de pluja more information rain snow radar


Visita la nostra xarxa de llocs de meteo:

Template documentation
and downloads

And another site



No particular awareness of the weather is required.    There are no Weather-warnings

Pagina Historial Weather Underground text

Diari Resum Octubre 27, 2017 Unitats:  Imperial    Mètric   Tant
« Previous Dia
SegĂźent Dia »
Diari Setmana Mensual Anual Personalitzada
  Maxima: Minima: Media:
Temperatura: TemperatureC °F 13.0 °F 19 °F
Punt de rosada: DewpointC °F 9.8 °F 13.4 °F
Humitat: Humidity % 44 % 72 %
Wind Speed: WindSpeedKMH mph 0.0 mph 4.5 mph
RĂ fegues de vent: WindSpeedGustKMH mph - -
Vent:- - South
Pression baro: PressurehPa in 1022.9 in -
Precipitacions: 0.0 in    
Historical Graphs
 
 
Dades de taula per Octubre 27, 2017
Temps Temperatura Punt de rosada Pression baro Vent Wind Speed RĂ fegues de vent Humitat Rainfall Rate (Hourly)
TemperatureC °F DewpointC °F PressurehPa in Calm     Humidity % HourlyPrecipMM in
00:00 14.8 °F 13.7 °F 1024.9 in Calm     93 % 0.0 in
00:02 16.3 °F 14.3 °F 1028.0 in SW 1.9 mph 1.9 mph 88 % 0.0 in
00:07 16.2 °F 14.2 °F 1028.0 in Calm     88 % 0.0 in
00:10 14.3 °F 13.0 °F 1024.9 in SW 1.6 mph 3.2 mph 92 % 0.0 in
00:12 16.1 °F 14.3 °F 1028.0 in SW 1.9 mph   89 % 0.0 in
00:17 16.1 °F 14.3 °F 1028.0 in SW 2.6 mph 2.6 mph 89 % 0.0 in
00:20 14.3 °F 13.0 °F 1026.0 in SW 1.6 mph 3.2 mph 92 % 0.0 in
00:30 14.6 °F 13.5 °F 1026.0 in Calm   1.6 mph 93 % 0.0 in
00:40 14.5 °F 13.4 °F 1026.0 in Calm     93 % 0.0 in
00:50 14.5 °F 13.4 °F 1026.0 in Calm     93 % 0.0 in
01:00 14.5 °F 13.4 °F 1026.0 in Calm     93 % 0.0 in
01:10 14.3 °F 13.2 °F 1026.0 in Calm     93 % 0.0 in
01:20 14.3 °F 13.2 °F 1026.0 in Calm     93 % 0.0 in
01:30 14.2 °F 13.1 °F 1026.0 in Calm     93 % 0.0 in
01:40 14.0 °F 12.9 °F 1026.0 in Calm     93 % 0.0 in
01:50 13.9 °F 12.8 °F 1026.0 in Calm     93 % 0.0 in
02:00 13.9 °F 12.8 °F 1026.0 in Calm     93 % 0.0 in
02:10 13.7 °F 12.6 °F 1026.0 in ESE 1.6 mph 3.2 mph 93 % 0.0 in
02:20 13.6 °F 12.5 °F 1026.0 in Calm     93 % 0.0 in
02:30 13.5 °F 12.4 °F 1026.0 in Calm   1.6 mph 93 % 0.0 in
02:40 13.3 °F 12.2 °F 1026.0 in NNW 1.6 mph 3.2 mph 93 % 0.0 in
02:50 13.2 °F 11.9 °F 1026.0 in Calm   1.6 mph 92 % 0.0 in
03:00 13.2 °F 11.9 °F 1026.0 in Calm   3.2 mph 92 % 0.0 in
03:10 13.2 °F 12.1 °F 1026.0 in Calm     93 % 0.0 in
03:20 13.0 °F 11.7 °F 1026.0 in Calm   3.2 mph 92 % 0.0 in
03:30 13.0 °F 11.9 °F 1026.0 in Calm   1.6 mph 93 % 0.0 in
03:40 13.1 °F 12.0 °F 1026.0 in Calm     93 % 0.0 in
03:50 13.3 °F 12.2 °F 1026.0 in Calm     93 % 0.0 in
04:00 13.5 °F 12.6 °F 1024.9 in Calm     94 % 0.0 in
04:10 13.7 °F 12.8 °F 1024.9 in Calm     94 % 0.0 in
04:20 13.8 °F 12.8 °F 1026.0 in Calm     94 % 0.0 in
04:30 14.0 °F 12.9 °F 1026.0 in Calm     93 % 0.0 in
04:40 14.4 °F 13.4 °F 1026.0 in Calm     94 % 0.0 in
04:50 15.1 °F 14.0 °F 1026.0 in WNW 1.6 mph 1.6 mph 93 % 0.0 in
05:00 15.6 °F 14.3 °F 1026.0 in Calm     92 % 0.0 in
05:10 15.7 °F 14.1 °F 1026.0 in Calm   3.2 mph 90 % 0.0 in
05:20 16.2 °F 14.2 °F 1027.0 in Calm   1.6 mph 88 % 0.0 in
10:30 16.6 °F 14.1 °F 1026.0 in SW 3.7 mph 3.7 mph 85 % 0.0 in
10:35 16.7 °F 14.2 °F 1026.0 in SW 3.7 mph   85 % 0.0 in
10:40 17.1 °F 14.4 °F 1026.0 in South 3.5 mph 3.5 mph 84 % 0.0 in
10:45 17.4 °F 14.5 °F 1026.0 in WSW 4.2 mph 4.2 mph 83 % 0.0 in
10:50 17.3 °F 14.2 °F 1026.0 in SW 4.2 mph 4.2 mph 82 % 0.0 in
10:55 17.8 °F 14.5 °F 1026.0 in SSW 3.7 mph 3.7 mph 81 % 0.0 in
11:00 18.4 °F 14.9 °F 1026.0 in ESE 3.9 mph 3.9 mph 80 % 0.0 in
11:05 18.4 °F 14.5 °F 1026.0 in ESE 3.7 mph 3.7 mph 78 % 0.0 in
11:10 18.6 °F 14.7 °F 1024.9 in NE 3.7 mph 3.7 mph 78 % 0.0 in
11:15 18.9 °F 15.0 °F 1024.9 in ENE 3.7 mph 3.7 mph 78 % 0.0 in
11:20 19.3 °F 14.9 °F 1024.9 in ENE 2.3 mph 2.3 mph 76 % 0.0 in
11:25 19.4 °F 15.1 °F 1024.9 in ENE 4.2 mph 4.2 mph 76 % 0.0 in
11:30 19.3 °F 14.8 °F 1024.9 in NE 3.7 mph 3.7 mph 75 % 0.0 in
11:35 19.4 °F 14.8 °F 1024.9 in ENE 5.6 mph 5.6 mph 75 % 0.0 in
11:40 19.8 °F 15.4 °F 1026.0 in ENE 3.7 mph 3.7 mph 76 % 0.0 in
11:45 19.8 °F 15.2 °F 1026.0 in NNE 5.6 mph 5.6 mph 75 % 0.0 in
11:50 19.7 °F 15.2 °F 1026.0 in NNE 1.9 mph 1.9 mph 75 % 0.0 in
11:55 19.7 °F 14.9 °F 1026.0 in NNE 7.4 mph 7.4 mph 74 % 0.0 in
12:00 19.9 °F 14.9 °F 1026.0 in East 7.6 mph 7.6 mph 73 % 0.0 in
12:05 19.9 °F 14.7 °F 1026.0 in NNE 7.4 mph 7.4 mph 72 % 0.0 in
12:10 20.1 °F 14.4 °F 1026.0 in ENE 3.9 mph 3.9 mph 70 % 0.0 in
12:15 20.3 °F 14.4 °F 1026.0 in NE 3.9 mph 3.9 mph 69 % 0.0 in
12:20 20.5 °F 14.8 °F 1026.0 in East 6.9 mph 6.9 mph 70 % 0.0 in
12:25 20.6 °F 14.7 °F 1026.0 in East 5.6 mph 5.6 mph 69 % 0.0 in
12:30 20.7 °F 14.3 °F 1026.0 in NNE 7.4 mph 7.4 mph 67 % 0.0 in
12:35 21.1 °F 15.2 °F 1026.0 in ENE 3.9 mph 3.9 mph 69 % 0.0 in
12:40 21.2 °F 14.8 °F 1026.0 in ENE 3.9 mph 3.9 mph 67 % 0.0 in
12:45 21.4 °F 15.2 °F 1026.0 in East 3.7 mph 3.7 mph 68 % 0.0 in
12:50 21.7 °F 15.3 °F 1026.0 in ENE 5.6 mph 5.6 mph 67 % 0.0 in
12:55 21.6 °F 15.2 °F 1024.9 in East 5.6 mph 5.6 mph 67 % 0.0 in
12:56 21.7 °F 15.3 °F 1024.9 in East 3.7 mph 3.7 mph 67 % 0.0 in
13:01 21.9 °F 15.3 °F 1024.9 in NNE 3.7 mph 3.7 mph 66 % 0.0 in
13:06 22.1 °F 15.2 °F 1024.9 in NNE 4.7 mph 4.7 mph 65 % 0.0 in
13:11 22.3 °F 15.4 °F 1024.9 in North 3.7 mph   65 % 0.0 in
13:16 22.4 °F 15.3 °F 1024.9 in ENE 4.2 mph 4.2 mph 64 % 0.0 in
13:21 22.6 °F 15.2 °F 1024.9 in East 1.9 mph 2.6 mph 63 % 0.0 in
13:26 22.8 °F 15.1 °F 1023.9 in SE 3.7 mph 3.7 mph 62 % 0.0 in
13:31 23.1 °F 15.7 °F 1023.9 in NW 6.4 mph 6.4 mph 63 % 0.0 in
13:36 23.3 °F 15.3 °F 1023.9 in SSE 5.6 mph 5.6 mph 61 % 0.0 in
13:41 23.7 °F 15.7 °F 1022.9 in North 5.6 mph 5.6 mph 61 % 0.0 in
13:46 24.0 °F 15.5 °F 1022.9 in NNW 5.6 mph 5.6 mph 59 % 0.0 in
13:51 23.8 °F 15.3 °F 1022.9 in West 6.9 mph 6.9 mph 59 % 0.0 in
13:56 23.9 °F 15.1 °F 1023.9 in WNW 5.6 mph 5.6 mph 58 % 0.0 in
14:01 24.1 °F 14.2 °F 1023.9 in WNW 3.7 mph 3.7 mph 54 % 0.0 in
14:06 24.2 °F 14.3 °F 1023.9 in WSW 5.8 mph 5.8 mph 54 % 0.0 in
14:11 24.6 °F 14.9 °F 1023.9 in West 4.2 mph 4.2 mph 55 % 0.0 in
14:16 24.7 °F 14.8 °F 1023.9 in West 7.4 mph 7.4 mph 54 % 0.0 in
14:21 24.7 °F 14.5 °F 1023.9 in West 9.3 mph 9.3 mph 53 % 0.0 in
14:26 24.9 °F 14.7 °F 1023.9 in SW 4.2 mph 4.2 mph 53 % 0.0 in
14:31 24.6 °F 14.1 °F 1023.9 in West 5.6 mph 5.6 mph 52 % 0.0 in
14:36 24.4 °F 13.3 °F 1023.9 in SW 9.3 mph 9.3 mph 50 % 0.0 in
14:41 24.3 °F 13.2 °F 1023.9 in WSW 13.0 mph 13.0 mph 50 % 0.0 in
14:46 24.2 °F 12.8 °F 1023.9 in SW 9.3 mph 9.3 mph 49 % 0.0 in
14:51 24.1 °F 12.4 °F 1023.9 in WNW 11.1 mph 11.1 mph 48 % 0.0 in
14:56 24.4 °F 13.0 °F 1022.9 in North 3.7 mph 3.7 mph 49 % 0.0 in
15:01 24.5 °F 13.1 °F 1022.9 in WSW 7.4 mph 7.4 mph 49 % 0.0 in
15:06 24.6 °F 13.2 °F 1022.9 in WSW 7.9 mph 7.9 mph 49 % 0.0 in
15:11 24.7 °F 13.3 °F 1022.9 in West 5.6 mph 5.6 mph 49 % 0.0 in
15:16 24.6 °F 13.2 °F 1022.9 in West 5.6 mph 5.6 mph 49 % 0.0 in
15:21 24.5 °F 12.8 °F 1022.9 in West 9.3 mph 9.3 mph 48 % 0.0 in
15:26 24.5 °F 12.8 °F 1022.9 in SW 9.3 mph 9.3 mph 48 % 0.0 in
15:31 24.6 °F 12.8 °F 1022.9 in WSW 7.4 mph 7.4 mph 48 % 0.0 in
15:36 24.7 °F 12.9 °F 1022.9 in West 7.4 mph 7.4 mph 48 % 0.0 in
15:41 24.9 °F 13.1 °F 1022.9 in West 13.0 mph 13.0 mph 48 % 0.0 in
15:46 24.8 °F 12.7 °F 1022.9 in WSW 6.1 mph 6.1 mph 47 % 0.0 in
15:51 24.7 °F 12.6 °F 1022.9 in West 13.0 mph 13.0 mph 47 % 0.0 in
15:56 24.6 °F 12.2 °F 1022.9 in West 14.8 mph 14.8 mph 46 % 0.0 in
16:01 24.6 °F 12.2 °F 1022.9 in WSW 7.9 mph 7.9 mph 46 % 0.0 in
16:06 24.6 °F 12.2 °F 1022.9 in WSW 11.1 mph 11.1 mph 46 % 0.0 in
16:11 24.6 °F 12.2 °F 1022.9 in WSW 9.3 mph 9.3 mph 46 % 0.0 in
16:16 24.6 °F 12.2 °F 1022.9 in WNW 5.6 mph 5.6 mph 46 % 0.0 in
16:21 24.6 °F 12.2 °F 1022.9 in SW 3.7 mph 3.7 mph 46 % 0.0 in
16:26 24.7 °F 12.3 °F 1022.9 in West 7.4 mph 7.4 mph 46 % 0.0 in
16:31 24.6 °F 12.2 °F 1022.9 in WSW 11.1 mph 11.1 mph 46 % 0.0 in
16:36 24.5 °F 11.8 °F 1022.9 in WSW 9.3 mph 9.3 mph 45 % 0.0 in
16:41 24.4 °F 11.7 °F 1022.9 in WSW 7.4 mph 7.4 mph 45 % 0.0 in
16:46 24.6 °F 11.9 °F 1022.9 in West 5.6 mph 5.6 mph 45 % 0.0 in
16:51 24.6 °F 11.9 °F 1022.9 in SW 6.1 mph 6.1 mph 45 % 0.0 in
16:56 24.5 °F 11.8 °F 1022.9 in WNW 8.7 mph 8.7 mph 45 % 0.0 in
17:01 24.6 °F 11.9 °F 1022.9 in WSW 5.6 mph 5.6 mph 45 % 0.0 in
17:06 24.5 °F 11.8 °F 1022.9 in WSW 6.1 mph 6.1 mph 45 % 0.0 in
17:11 24.5 °F 11.8 °F 1022.9 in WSW 6.9 mph 6.9 mph 45 % 0.0 in
17:16 24.4 °F 11.3 °F 1022.9 in SW 7.9 mph 7.9 mph 44 % 0.0 in
17:21 24.4 °F 11.7 °F 1022.9 in WSW 9.7 mph 9.7 mph 45 % 0.0 in
17:26 24.3 °F 11.3 °F 1022.9 in WSW 9.3 mph 9.3 mph 44 % 0.0 in
17:31 24.4 °F 11.3 °F 1022.9 in WSW 3.7 mph 3.7 mph 44 % 0.0 in
17:36 24.3 °F 11.3 °F 1022.9 in SW 7.4 mph 7.4 mph 44 % 0.0 in
17:41 24.2 °F 11.2 °F 1022.9 in SW 11.1 mph 11.1 mph 44 % 0.0 in
17:46 24.2 °F 11.2 °F 1022.9 in West 3.7 mph 3.7 mph 44 % 0.0 in
17:51 24.0 °F 11.0 °F 1022.9 in SW 5.6 mph 5.6 mph 44 % 0.0 in
17:56 23.5 °F 10.6 °F 1023.9 in ENE 3.9 mph 3.9 mph 44 % 0.0 in
17:58 23.4 °F 10.4 °F 1023.9 in East 5.6 mph 5.6 mph 44 % 0.0 in
18:03 22.5 °F 11.2 °F 1023.9 in ENE 7.4 mph 7.4 mph 49 % 0.0 in
18:08 22.1 °F 11.8 °F 1023.9 in NE 7.4 mph 7.4 mph 52 % 0.0 in
18:13 21.6 °F 12.4 °F 1023.9 in East 9.7 mph 9.7 mph 56 % 0.0 in
18:18 21.2 °F 13.1 °F 1023.9 in ESE 5.6 mph 5.6 mph 60 % 0.0 in
18:23 20.9 °F 13.1 °F 1023.9 in East 11.1 mph 11.1 mph 61 % 0.0 in
18:28 20.7 °F 13.4 °F 1023.9 in NE 9.5 mph 9.5 mph 63 % 0.0 in
18:33 20.5 °F 13.4 °F 1023.9 in East 13.0 mph 13.0 mph 64 % 0.0 in
18:38 20.3 °F 13.7 °F 1023.9 in ENE 9.3 mph 9.3 mph 66 % 0.0 in
18:43 20.1 °F 13.8 °F 1023.9 in ESE 10.0 mph 10.0 mph 67 % 0.0 in
18:48 20.0 °F 13.7 °F 1023.9 in ESE 7.9 mph 7.9 mph 67 % 0.0 in
18:53 19.8 °F 13.9 °F 1023.9 in ENE 12.6 mph 12.6 mph 69 % 0.0 in
18:58 19.6 °F 14.2 °F 1023.9 in East 9.3 mph 9.3 mph 71 % 0.0 in
19:08 19.3 °F 14.1 °F 1023.9 in ENE 7.4 mph 7.4 mph 72 % 0.0 in
19:13 19.2 °F 14.1 °F 1023.9 in ENE 5.6 mph 5.6 mph 72 % 0.0 in
19:18 19.1 °F 14.2 °F 1023.9 in East 9.3 mph 9.3 mph 73 % 0.0 in
19:23 19.0 °F 14.3 °F 1023.9 in ENE 10.0 mph 10.0 mph 74 % 0.0 in
19:28 18.9 °F 14.4 °F 1023.9 in East 9.3 mph 9.3 mph 75 % 0.0 in
19:33 18.9 °F 14.6 °F 1023.9 in ENE 7.4 mph 7.4 mph 76 % 0.0 in
19:38 18.8 °F 14.3 °F 1023.9 in ENE 5.3 mph 5.3 mph 75 % 0.0 in
19:43 18.7 °F 14.4 °F 1022.9 in NNE 4.2 mph 4.2 mph 76 % 0.0 in
19:48 18.7 °F 14.4 °F 1022.9 in ENE 7.4 mph 7.4 mph 76 % 0.0 in
19:53 18.6 °F 14.5 °F 1022.9 in NNE 3.7 mph 3.7 mph 77 % 0.0 in
19:58 18.5 °F 14.4 °F 1023.9 in ENE 5.6 mph 5.6 mph 77 % 0.0 in
20:00 16.3 °F 14.1 °F 1023.9 in Calm     87 % 0.0 in
20:03 18.4 °F 14.3 °F 1023.9 in NNE 7.4 mph 7.4 mph 77 % 0.0 in
20:08 18.5 °F 14.6 °F 1023.9 in NNE 7.4 mph 7.4 mph 78 % 0.0 in
20:10 16.4 °F 14.1 °F 1023.9 in WSW 1.6 mph 3.2 mph 86 % 0.0 in
20:13 18.5 °F 14.6 °F 1023.9 in ENE 9.3 mph 9.3 mph 78 % 0.0 in
20:18 18.4 °F 14.5 °F 1023.9 in NNE 7.4 mph 7.4 mph 78 % 0.0 in
20:20 16.4 °F 14.1 °F 1023.9 in Calm   1.6 mph 86 % 0.0 in
20:23 18.4 °F 14.5 °F 1024.9 in ENE 7.4 mph 7.4 mph 78 % 0.0 in
20:28 18.3 °F 14.6 °F 1024.9 in ENE 7.4 mph 7.4 mph 79 % 0.0 in
20:30 16.3 °F 13.9 °F 1023.9 in WSW 3.2 mph 3.2 mph 86 % 0.0 in
20:33 18.2 °F 14.5 °F 1024.9 in ENE 8.7 mph 8.7 mph 79 % 0.0 in
20:38 18.1 °F 14.4 °F 1024.9 in ENE 7.4 mph 7.4 mph 79 % 0.0 in
20:40 16.2 °F 13.8 °F 1023.9 in WSW 1.6 mph 3.2 mph 86 % 0.0 in
20:43 18.1 °F 14.4 °F 1024.9 in ENE 5.6 mph 5.6 mph 79 % 0.0 in
20:48 18.0 °F 14.5 °F 1024.9 in East 3.7 mph 3.7 mph 80 % 0.0 in
20:53 18.0 °F 14.3 °F 1024.9 in NNE 3.9 mph 3.9 mph 79 % 0.0 in
20:58 17.8 °F 14.3 °F 1024.9 in NNW 2.3 mph 2.3 mph 80 % 0.0 in
21:00 16.3 °F 13.6 °F 1023.9 in West 1.6 mph 4.8 mph 84 % 0.0 in
21:08 17.8 °F 14.3 °F 1024.9 in SW 3.7 mph 3.7 mph 80 % 0.0 in
21:10 16.5 °F 13.6 °F 1023.9 in Calm   4.8 mph 83 % 0.0 in
21:13 17.6 °F 14.1 °F 1024.9 in SW 3.7 mph 3.7 mph 80 % 0.0 in
21:18 17.5 °F 14.0 °F 1024.9 in WSW 3.9 mph   80 % 0.0 in
21:20 16.4 °F 13.1 °F 1023.9 in WSW 4.8 mph 8.0 mph 81 % 0.0 in
21:23 17.4 °F 14.1 °F 1024.9 in SSE 5.6 mph 5.6 mph 81 % 0.0 in
21:28 17.3 °F 13.6 °F 1024.9 in SW 5.6 mph 5.6 mph 79 % 0.0 in
21:30 16.2 °F 12.6 °F 1023.9 in West 8.0 mph 9.7 mph 79 % 0.0 in
21:33 17.1 °F 13.6 °F 1024.9 in SW 3.7 mph 3.7 mph 80 % 0.0 in
21:38 16.9 °F 13.6 °F 1024.9 in SW 3.7 mph 3.7 mph 81 % 0.0 in
21:40 16.0 °F 12.3 °F 1023.9 in WSW 4.8 mph 8.0 mph 79 % 0.0 in
21:43 16.8 °F 13.3 °F 1024.9 in SW 3.7 mph 3.7 mph 80 % 0.0 in
21:48 16.8 °F 13.5 °F 1024.9 in WSW 2.6 mph   81 % 0.0 in
21:50 16.0 °F 11.9 °F 1024.9 in West 4.8 mph 6.4 mph 77 % 0.0 in
21:53 16.8 °F 13.5 °F 1024.9 in SW 3.9 mph 3.9 mph 81 % 0.0 in
21:58 16.7 °F 13.6 °F 1024.9 in SW 3.7 mph 3.7 mph 82 % 0.0 in
22:00 15.8 °F 11.6 °F 1023.9 in West 3.2 mph 4.8 mph 76 % 0.0 in
22:03 16.7 °F 13.8 °F 1024.9 in Calm     83 % 0.0 in
22:08 16.7 °F 13.8 °F 1024.9 in Calm     83 % 0.0 in
22:10 15.6 °F 11.2 °F 1023.9 in Calm   4.8 mph 75 % 0.0 in
22:13 16.8 °F 14.1 °F 1024.9 in Calm     84 % 0.0 in
22:18 16.8 °F 14.1 °F 1024.9 in Calm     84 % 0.0 in
22:20 15.4 °F 11.0 °F 1023.9 in WSW 1.6 mph 1.6 mph 75 % 0.0 in
22:23 16.8 °F 14.1 °F 1024.9 in SW 3.2 mph   84 % 0.0 in
22:28 16.7 °F 13.8 °F 1024.9 in WSW 3.7 mph 3.7 mph 83 % 0.0 in
22:30 15.2 °F 10.8 °F 1023.9 in Calm   3.2 mph 75 % 0.0 in
22:33 16.7 °F 13.8 °F 1024.9 in WSW 1.9 mph 2.3 mph 83 % 0.0 in
22:38 16.7 °F 13.8 °F 1024.9 in WSW 3.7 mph 3.7 mph 83 % 0.0 in
22:40 15.0 °F 10.6 °F 1023.9 in Calm   1.6 mph 75 % 0.0 in
22:43 16.7 °F 13.8 °F 1024.9 in WSW 3.7 mph 3.7 mph 83 % 0.0 in
22:48 16.8 °F 14.1 °F 1024.9 in West 3.7 mph   84 % 0.0 in
22:50 14.9 °F 10.5 °F 1023.9 in Calm   6.4 mph 75 % 0.0 in
22:53 17.0 °F 13.9 °F 1024.9 in West 5.6 mph 5.6 mph 82 % 0.0 in
22:58 17.1 °F 14.2 °F 1024.9 in West 1.9 mph 1.9 mph 83 % 0.0 in
23:00 14.4 °F 10.2 °F 1023.9 in West 1.6 mph 4.8 mph 76 % 0.0 in
23:03 17.0 °F 14.3 °F 1024.9 in Calm     84 % 0.0 in
23:08 17.0 °F 14.3 °F 1024.9 in NW 1.9 mph   84 % 0.0 in
23:10 14.4 °F 10.2 °F 1023.9 in NW 3.2 mph 6.4 mph 76 % 0.0 in
23:13 17.0 °F 14.3 °F 1024.9 in NNW 1.9 mph   84 % 0.0 in
23:18 17.1 °F 14.4 °F 1024.9 in WNW 3.7 mph 3.7 mph 84 % 0.0 in
23:20 14.6 °F 10.4 °F 1023.9 in NNE 3.2 mph 4.8 mph 76 % 0.0 in
23:23 17.0 °F 14.3 °F 1023.9 in SW 3.7 mph 3.7 mph 84 % 0.0 in
23:28 16.9 °F 14.2 °F 1023.9 in Calm     84 % 0.0 in
23:30 14.4 °F 10.2 °F 1023.9 in North 1.6 mph 3.2 mph 76 % 0.0 in
23:33 17.1 °F 14.4 °F 1023.9 in SW 7.4 mph 7.4 mph 84 % 0.0 in
23:38 16.9 °F 14.2 °F 1024.9 in SW 1.9 mph 1.9 mph 84 % 0.0 in
23:40 14.2 °F 10.2 °F 1023.9 in NNW 3.2 mph 4.8 mph 77 % 0.0 in
23:43 16.7 °F 14.0 °F 1024.9 in SW 1.9 mph 1.9 mph 84 % 0.0 in
23:48 16.7 °F 14.2 °F 1024.9 in Calm     85 % 0.0 in
23:50 13.8 °F 9.8 °F 1023.9 in Calm   3.2 mph 77 % 0.0 in
23:53 16.6 °F 14.1 °F 1023.9 in Calm     85 % 0.0 in
23:58 16.6 °F 14.1 °F 1023.9 in SW 1.9 mph   85 % 0.0 in
Meteo Sesrovires
Elogis d' Weather Underground - 4 mb

Guio original per  Jim McMurry - jmcmurry@mwt.net Adaptat per a la plantilla per  Wim van der Kuil - Leuven-Template.eu

Trobareu la nostra informacio del temps tambe a:

Weather Underground

AWEKAS